Time;durP1;ratioP1;P1;durP2;ratioP2;P2;SDS_P1;SDS_P2;PMS_P1;PMS_P2;Temp;Humidity;BMP_temperature;BMP_pressure;BME280_temperature;BME280_humidity;BME280_pressure;Samples;Min_cycle;Max_cycle;Signal;HPM_P1;HPM_P2
2021/04/24 00:00:56;;;;;;;63.70;8.00;;;5.20;1.00;;;;;;5075064;28;20646;-67
2021/04/24 00:03:23;;;;;;;64.40;8.15;;;5.20;1.00;;;;;;5074775;28;20673;-67
2021/04/24 00:05:49;;;;;;;66.68;7.75;;;5.10;1.00;;;;;;5074560;28;20752;-67
2021/04/24 00:08:16;;;;;;;63.35;8.27;;;5.00;1.00;;;;;;5074536;28;20220;-67
2021/04/24 00:10:45;;;;;;;64.75;9.27;;;5.00;1.00;;;;;;5074454;28;20263;-67
2021/04/24 00:13:13;;;;;;;66.57;8.40;;;5.00;1.00;;;;;;5074601;28;20215;-67
2021/04/24 00:15:40;;;;;;;63.70;7.93;;;4.90;1.00;;;;;;5074679;28;20296;-67
2021/04/24 00:18:08;;;;;;;64.55;7.72;;;4.90;1.00;;;;;;5074800;28;20551;-67
2021/04/24 00:20:35;;;;;;;63.10;7.88;;;5.00;1.00;;;;;;5074583;28;20256;-67
2021/04/24 00:23:02;;;;;;;66.20;7.93;;;5.00;1.00;;;;;;5074161;28;20282;-67
2021/04/24 00:25:28;;;;;;;68.72;8.00;;;4.90;1.00;;;;;;5074567;28;20328;-67
2021/04/24 00:27:55;;;;;;;65.53;8.15;;;4.90;1.00;;;;;;5074465;28;20235;-67
2021/04/24 00:30:23;;;;;;;64.75;8.35;;;4.80;1.00;;;;;;5074213;28;20221;-67
2021/04/24 00:32:50;;;;;;;65.25;8.30;;;4.80;1.00;;;;;;5074088;28;20208;-67
2021/04/24 00:35:17;;;;;;;66.38;8.60;;;4.70;1.00;;;;;;5074147;28;20295;-67
2021/04/24 00:37:44;;;;;;;66.30;7.95;;;4.70;1.00;;;;;;5074005;28;20239;-67
2021/04/24 00:40:11;;;;;;;62.33;7.88;;;4.70;1.00;;;;;;5074156;28;20225;-67
2021/04/24 00:42:38;;;;;;;65.82;7.93;;;4.60;1.00;;;;;;5074131;28;20242;-67
2021/04/24 00:45:08;;;;;;;63.22;7.35;;;4.60;1.00;;;;;;5073990;28;20288;-67
2021/04/24 00:47:35;;;;;;;65.65;8.27;;;4.50;1.00;;;;;;5073871;28;20225;-67
2021/04/24 00:50:01;;;;;;;67.20;7.53;;;4.50;1.00;;;;;;5073796;28;20224;-67
2021/04/24 00:52:27;;;;;;;63.65;7.78;;;4.50;1.00;;;;;;5073749;28;20216;-67
2021/04/24 00:54:54;;;;;;;60.55;6.55;;;4.50;1.00;;;;;;5072722;28;20209;-67
2021/04/24 00:57:21;;;;;;;67.53;7.32;;;4.50;1.00;;;;;;5073885;28;20291;-67
2021/04/24 00:59:48;;;;;;;65.72;7.97;;;4.40;1.00;;;;;;5073644;28;20670;-67
2021/04/24 01:02:15;;;;;;;63.15;7.40;;;4.40;1.00;;;;;;5073729;28;20205;-67
2021/04/24 01:04:42;;;;;;;64.78;7.30;;;4.40;1.00;;;;;;5073428;28;20294;-67
2021/04/24 01:07:09;;;;;;;66.90;8.48;;;4.40;1.00;;;;;;5073612;28;20213;-67
2021/04/24 01:09:36;;;;;;;63.60;7.60;;;4.40;1.00;;;;;;5073688;28;20312;-67
2021/04/24 01:12:03;;;;;;;61.92;7.32;;;4.30;1.00;;;;;;5073513;28;20311;-67
2021/04/24 01:14:29;;;;;;;62.67;7.38;;;4.30;1.00;;;;;;5073387;28;20213;-67
2021/04/24 01:16:56;;;;;;;62.30;8.15;;;4.20;1.00;;;;;;5073575;28;20235;-67
2021/04/24 01:19:25;;;;;;;64.35;9.40;;;4.20;1.00;;;;;;5073009;28;20839;-67
2021/04/24 01:21:53;;;;;;;65.47;9.65;;;4.10;1.00;;;;;;5073456;28;20750;-67
2021/04/24 01:24:20;;;;;;;64.55;8.57;;;4.00;1.00;;;;;;5073394;28;20204;-67
2021/04/24 01:26:48;;;;;;;66.00;9.13;;;4.00;1.00;;;;;;5073028;28;20670;-67
2021/04/24 01:29:14;;;;;;;65.15;9.88;;;3.90;1.00;;;;;;5072932;28;20256;-67
2021/04/24 01:31:41;;;;;;;66.55;10.25;;;3.90;1.00;;;;;;5073224;28;20269;-67
2021/04/24 01:34:08;;;;;;;64.00;7.60;;;3.80;1.00;;;;;;5072792;28;20308;-67
2021/04/24 01:36:35;;;;;;;63.67;8.38;;;3.80;1.00;;;;;;5072908;28;20755;-67
2021/04/24 01:39:01;;;;;;;67.35;8.50;;;3.80;1.00;;;;;;5076112;28;20227;-67
2021/04/24 01:41:29;;;;;;;63.95;7.85;;;3.80;1.00;;;;;;5075878;28;20565;-67
2021/04/24 01:43:56;;;;;;;68.40;9.40;;;3.70;1.00;;;;;;5072951;28;20301;-67
2021/04/24 01:46:23;;;;;;;65.18;8.93;;;3.70;1.00;;;;;;5072685;28;20300;-67
2021/04/24 01:48:50;;;;;;;68.05;9.10;;;3.70;1.00;;;;;;5072701;28;20608;-67
2021/04/24 01:51:17;;;;;;;66.45;9.23;;;3.60;1.00;;;;;;5072717;28;20335;-67
2021/04/24 01:53:44;;;;;;;80.80;14.27;;;3.60;1.00;;;;;;5072625;28;20296;-67
2021/04/24 01:56:11;;;;;;;91.50;19.73;;;3.50;1.00;;;;;;5072710;28;20295;-67
2021/04/24 01:58:39;;;;;;;83.70;17.48;;;3.50;1.00;;;;;;5072435;28;20743;-67
2021/04/24 02:01:08;;;;;;;93.70;22.25;;;3.50;1.00;;;;;;5072792;28;20748;-67
2021/04/24 02:03:34;;;;;;;97.28;21.90;;;3.50;1.00;;;;;;5072548;28;20209;-67
2021/04/24 02:06:01;;;;;;;80.43;14.73;;;3.50;1.00;;;;;;5072274;28;20681;-67
2021/04/24 02:08:34;;;;;;;78.30;14.77;;;3.50;1.00;;;;;;5072279;28;20315;-67
2021/04/24 02:11:02;;;;;;;78.28;12.98;;;3.50;1.00;;;;;;5072541;28;20236;-67
2021/04/24 02:13:31;;;;;;;76.90;13.93;;;3.50;1.00;;;;;;5071977;28;20295;-67
2021/04/24 02:15:59;;;;;;;77.85;13.90;;;3.50;1.00;;;;;;5072075;28;20740;-67
2021/04/24 02:18:26;;;;;;;79.60;14.02;;;3.50;1.00;;;;;;5072227;28;20292;-67
2021/04/24 02:20:53;;;;;;;75.65;12.80;;;3.40;1.00;;;;;;5072182;28;20256;-67
2021/04/24 02:23:20;;;;;;;68.93;10.38;;;3.40;1.00;;;;;;5071862;28;20673;-67
2021/04/24 02:25:47;;;;;;;67.72;10.10;;;3.40;1.00;;;;;;5072111;28;20239;-67
2021/04/24 02:28:14;;;;;;;67.57;9.95;;;3.40;1.00;;;;;;5071755;28;20267;-66
2021/04/24 02:30:40;;;;;;;68.88;9.93;;;3.40;1.00;;;;;;5072126;28;20311;-67
2021/04/24 02:33:08;;;;;;;63.30;8.90;;;3.40;1.00;;;;;;5072087;28;20209;-67
2021/04/24 02:35:44;;;;;;;67.72;9.68;;;3.40;1.00;;;;;;5071933;28;20235;-67
2021/04/24 02:38:11;;;;;;;69.65;9.25;;;3.40;1.00;;;;;;5072008;28;20211;-67
2021/04/24 02:40:38;;;;;;;70.07;9.98;;;3.30;1.00;;;;;;5071625;28;20260;-67
2021/04/24 02:43:04;;;;;;;64.57;9.05;;;3.30;1.00;;;;;;5071834;28;20296;-67
2021/04/24 02:45:30;;;;;;;64.57;8.18;;;3.30;1.00;;;;;;5071906;28;20204;-67
2021/04/24 02:47:57;;;;;;;66.45;9.52;;;3.30;1.00;;;;;;5071788;28;20311;-67
2021/04/24 02:50:24;;;;;;;63.35;8.68;;;3.20;1.00;;;;;;5071690;28;20312;-67
2021/04/24 02:52:51;;;;;;;65.78;10.75;;;3.20;1.00;;;;;;5071683;28;20259;-67
2021/04/24 02:55:18;;;;;;;63.47;8.77;;;3.20;1.00;;;;;;5071272;28;20212;-67
2021/04/24 02:57:45;;;;;;;66.05;8.95;;;3.20;1.00;;;;;;5072058;28;20572;-67
2021/04/24 03:00:15;;;;;;;63.92;8.90;;;3.10;1.00;;;;;;5070281;28;20262;-67
2021/04/24 03:02:42;;;;;;;67.90;9.40;;;3.10;1.00;;;;;;5071386;28;20291;-67
2021/04/24 03:05:09;;;;;;;68.47;9.00;;;3.00;1.00;;;;;;5071515;28;20295;-67
2021/04/24 03:07:37;;;;;;;65.82;9.27;;;3.00;1.00;;;;;;5071379;28;20724;-67
2021/04/24 03:10:06;;;;;;;68.25;9.00;;;3.00;1.00;;;;;;5071505;28;20764;-67
2021/04/24 03:12:32;;;;;;;66.95;9.85;;;3.00;1.00;;;;;;5071378;28;20200;-67
2021/04/24 03:14:58;;;;;;;65.97;8.77;;;2.90;1.00;;;;;;5071393;28;20212;-68
2021/04/24 03:17:25;;;;;;;68.95;10.10;;;2.90;1.00;;;;;;5070921;28;20201;-67
2021/04/24 03:19:52;;;;;;;64.60;9.38;;;2.80;1.00;;;;;;5071333;28;20320;-67
2021/04/24 03:22:18;;;;;;;66.20;9.00;;;2.80;1.00;;;;;;5071080;28;20295;-67
2021/04/24 03:24:45;;;;;;;65.18;9.18;;;2.80;1.00;;;;;;5071532;28;20205;-67
2021/04/24 03:27:12;;;;;;;65.50;9.73;;;2.80;1.00;;;;;;5071250;28;20583;-67
2021/04/24 03:29:38;;;;;;;66.88;9.20;;;2.70;1.00;;;;;;5070656;28;20712;-67
2021/04/24 03:32:05;;;;;;;70.45;10.07;;;2.70;1.00;;;;;;5091008;28;20291;-67
2021/04/24 03:34:32;;;;;;;66.05;8.25;;;2.70;1.00;;;;;;5091852;28;20675;-67
2021/04/24 03:36:58;;;;;;;66.97;9.85;;;2.70;1.00;;;;;;5091180;28;20291;-67
2021/04/24 03:39:25;;;;;;;64.65;8.88;;;2.70;1.00;;;;;;5091515;28;20307;-67
2021/04/24 03:41:53;;;;;;;68.03;10.93;;;2.60;1.00;;;;;;5091261;28;20247;-67
2021/04/24 03:44:19;;;;;;;74.38;9.73;;;2.60;1.00;;;;;;5091240;28;20240;-67
2021/04/24 03:46:46;;;;;;;66.43;8.68;;;2.60;1.00;;;;;;5091388;28;20561;-67
2021/04/24 03:49:12;;;;;;;64.40;9.27;;;2.60;1.00;;;;;;5091022;28;20315;-67
2021/04/24 03:51:39;;;;;;;73.03;10.05;;;2.60;1.00;;;;;;5091004;28;20341;-67
2021/04/24 03:54:07;;;;;;;64.38;9.32;;;2.60;1.00;;;;;;5091334;28;20205;-67
2021/04/24 03:56:33;;;;;;;67.80;9.75;;;2.50;1.00;;;;;;5091328;28;20212;-67
2021/04/24 03:59:01;;;;;;;68.15;10.13;;;2.50;1.00;;;;;;5091111;28;20293;-67
2021/04/24 04:01:27;;;;;;;64.05;10.05;;;2.60;1.00;;;;;;5090011;28;20577;-67
2021/04/24 04:03:53;;;;;;;64.20;8.25;;;2.60;1.00;;;;;;5090713;28;20201;-67
2021/04/24 04:06:20;;;;;;;66.65;8.60;;;2.60;1.00;;;;;;5091065;28;20299;-67
2021/04/24 04:08:46;;;;;;;63.88;9.02;;;2.60;1.00;;;;;;5091139;28;20319;-67
2021/04/24 04:11:12;;;;;;;63.67;8.27;;;2.60;1.00;;;;;;5091059;28;20319;-67
2021/04/24 04:13:39;;;;;;;68.78;8.30;;;2.50;1.00;;;;;;5090846;28;20200;-67
2021/04/24 04:16:06;;;;;;;63.58;8.73;;;2.50;1.00;;;;;;5091085;28;20208;-67
2021/04/24 04:18:35;;;;;;;66.50;8.93;;;2.50;1.00;;;;;;5090861;28;20295;-67
2021/04/24 04:21:03;;;;;;;69.10;8.60;;;2.40;1.00;;;;;;5091304;28;20228;-67
2021/04/24 04:23:30;;;;;;;65.82;9.10;;;2.40;1.00;;;;;;5090954;28;20215;-68
2021/04/24 04:25:58;;;;;;;67.80;9.55;;;2.30;1.00;;;;;;5090879;28;20236;-68
2021/04/24 04:28:25;;;;;;;66.63;9.88;;;2.30;1.00;;;;;;5090702;28;20309;-67
2021/04/24 04:30:53;;;;;;;65.07;8.65;;;2.30;1.00;;;;;;5094365;28;20653;-65
2021/04/24 04:33:21;;;;;;;66.75;8.77;;;2.30;1.00;;;;;;5093266;28;20295;-68
2021/04/24 04:35:48;;;;;;;65.22;10.02;;;2.30;1.00;;;;;;5094378;28;20311;-66
2021/04/24 04:38:15;;;;;;;65.05;9.02;;;2.30;1.00;;;;;;5094441;28;20200;-65
2021/04/24 04:40:42;;;;;;;64.03;9.05;;;2.30;1.00;;;;;;5094294;28;20220;-65
2021/04/24 04:43:09;;;;;;;66.70;9.05;;;2.30;1.00;;;;;;5094241;28;20287;-65
2021/04/24 04:45:36;;;;;;;63.63;8.55;;;2.30;1.00;;;;;;5094001;28;20204;-66
2021/04/24 04:48:04;;;;;;;69.80;10.13;;;2.40;1.00;;;;;;5094248;28;20260;-66
2021/04/24 04:50:33;;;;;;;71.47;8.38;;;2.40;1.00;;;;;;5094130;28;20250;-66
2021/04/24 04:53:00;;;;;;;66.45;9.60;;;2.40;1.00;;;;;;5093917;28;20234;-66
2021/04/24 04:55:27;;;;;;;64.78;8.95;;;2.40;1.00;;;;;;5094071;28;20208;-66
2021/04/24 04:57:54;;;;;;;66.78;9.45;;;2.50;1.00;;;;;;5093945;28;20211;-66
2021/04/24 05:00:23;;;;;;;65.50;8.82;;;2.50;1.00;;;;;;5093659;28;20311;-66
2021/04/24 05:02:49;;;;;;;67.70;9.52;;;2.60;1.00;;;;;;5094049;28;20295;-66
2021/04/24 05:05:17;;;;;;;70.70;9.68;;;2.60;1.00;;;;;;5074787;28;20236;-66
2021/04/24 05:07:45;;;;;;;65.32;8.57;;;2.60;1.00;;;;;;5093761;28;20316;-67
2021/04/24 05:10:12;;;;;;;67.43;9.52;;;2.70;1.00;;;;;;5093765;28;20311;-66
2021/04/24 05:12:39;;;;;;;67.68;11.65;;;2.70;1.00;;;;;;5093517;28;20295;-66
2021/04/24 05:15:06;;;;;;;67.45;9.27;;;2.80;1.00;;;;;;5093501;28;20247;-67
2021/04/24 05:17:33;;;;;;;65.32;8.50;;;2.80;1.00;;;;;;5093776;28;20295;-66
2021/04/24 05:19:59;;;;;;;67.40;10.05;;;2.80;1.00;;;;;;5093699;28;20659;-67
2021/04/24 05:22:25;;;;;;;67.35;9.10;;;2.90;1.00;;;;;;5093581;28;20704;-66
2021/04/24 05:24:52;;;;;;;64.55;8.77;;;2.90;1.00;;;;;;5093592;28;20388;-66
2021/04/24 05:27:19;;;;;;;69.05;9.40;;;3.00;1.00;;;;;;5093289;28;20208;-66
2021/04/24 05:29:45;;;;;;;63.38;7.82;;;3.00;1.00;;;;;;5093542;28;20589;-66
2021/04/24 05:32:12;;;;;;;63.92;9.20;;;3.10;1.00;;;;;;5093377;28;20206;-66
2021/04/24 05:34:39;;;;;;;67.93;9.45;;;3.10;1.00;;;;;;5091832;28;20212;-66
2021/04/24 05:37:05;;;;;;;67.40;10.30;;;3.20;1.00;;;;;;5093138;28;20236;-66
2021/04/24 05:39:31;;;;;;;66.20;8.50;;;3.20;1.00;;;;;;5092554;28;20227;-66
2021/04/24 05:41:58;;;;;;;66.38;10.10;;;3.20;1.00;;;;;;5092843;28;20295;-66
2021/04/24 05:44:25;;;;;;;62.80;8.48;;;3.30;1.00;;;;;;5093498;28;20724;-67
2021/04/24 05:46:51;;;;;;;67.05;9.50;;;3.30;1.00;;;;;;5092913;28;20204;-66
2021/04/24 05:49:17;;;;;;;70.50;9.02;;;3.30;1.00;;;;;;5092806;28;20228;-66
2021/04/24 05:51:44;;;;;;;63.90;9.65;;;3.30;1.00;;;;;;5092781;28;20756;-68
2021/04/24 05:54:10;;;;;;;65.47;8.45;;;3.40;1.00;;;;;;5092793;28;20200;-67
2021/04/24 05:56:36;;;;;;;66.68;8.90;;;3.40;1.00;;;;;;5092708;28;20882;-66
2021/04/24 05:59:04;;;;;;;65.50;8.95;;;3.50;1.00;;;;;;5092851;28;20212;-66
2021/04/24 06:01:30;;;;;;;65.05;9.13;;;3.60;1.00;;;;;;5092962;28;20296;-66
2021/04/24 06:03:57;;;;;;;66.43;9.52;;;3.70;1.00;;;;;;5092735;28;20295;-66
2021/04/24 06:06:23;;;;;;;64.57;9.38;;;3.70;1.00;;;;;;5091095;28;20716;-66
2021/04/24 06:08:49;;;;;;;70.10;9.05;;;3.80;1.00;;;;;;5092186;28;20224;-66
2021/04/24 06:11:16;;;;;;;68.80;9.82;;;3.90;1.00;;;;;;5092627;28;20345;-66
2021/04/24 06:13:42;;;;;;;65.22;9.07;;;4.00;1.00;;;;;;5092406;28;20235;-66
2021/04/24 06:16:12;;;;;;;66.45;9.30;;;4.10;1.00;;;;;;5092548;28;20291;-66
2021/04/24 06:18:39;;;;;;;64.15;8.82;;;4.20;1.00;;;;;;5092606;28;20294;-66
2021/04/24 06:21:05;;;;;;;66.05;9.00;;;4.30;1.00;;;;;;5092426;28;20220;-67
2021/04/24 06:23:32;;;;;;;64.60;9.27;;;4.40;1.00;;;;;;5091996;28;20207;-66
2021/04/24 06:25:58;;;;;;;63.65;8.48;;;4.50;1.00;;;;;;5092239;28;20256;-66
2021/04/24 06:28:24;;;;;;;64.38;8.70;;;4.60;1.00;;;;;;5092029;28;20339;-66
2021/04/24 06:30:51;;;;;;;63.10;8.30;;;4.70;1.00;;;;;;5092134;28;20239;-66
2021/04/24 06:33:18;;;;;;;69.72;9.75;;;4.80;1.00;;;;;;5092220;28;20669;-66
2021/04/24 06:35:44;;;;;;;67.68;10.02;;;4.90;1.00;;;;;;5092019;28;20254;-66
2021/04/24 06:38:11;;;;;;;65.50;8.77;;;5.00;1.00;;;;;;5075466;28;20201;-66
2021/04/24 06:40:37;;;;;;;64.32;9.32;;;5.20;1.00;;;;;;5071939;28;20673;-66
2021/04/24 06:43:04;;;;;;;64.75;8.90;;;5.30;1.00;;;;;;5071794;28;20237;-66
2021/04/24 06:45:30;;;;;;;67.63;10.30;;;5.40;1.00;;;;;;5071777;28;20208;-66
2021/04/24 06:47:56;;;;;;;67.43;10.23;;;5.60;1.00;;;;;;5071709;28;20312;-66
2021/04/24 06:50:23;;;;;;;64.30;9.50;;;5.70;1.00;;;;;;5071642;28;20334;-66
2021/04/24 06:52:51;;;;;;;66.82;9.63;;;5.80;1.00;;;;;;5070543;28;20215;-66
2021/04/24 06:55:18;;;;;;;67.30;9.80;;;5.90;1.00;;;;;;5071493;28;20205;-66
2021/04/24 06:57:45;;;;;;;65.32;10.10;;;6.00;1.00;;;;;;5071582;28;20205;-66
2021/04/24 07:00:14;;;;;;;67.35;9.98;;;6.10;1.00;;;;;;5071363;28;20311;-66
2021/04/24 07:02:41;;;;;;;69.50;10.60;;;6.20;1.00;;;;;;5071384;28;20744;-66
2021/04/24 07:05:10;;;;;;;65.20;9.27;;;6.30;1.00;;;;;;5071960;28;20236;-66
2021/04/24 07:07:37;;;;;;;69.35;11.40;;;6.50;1.00;;;;;;5071479;28;20262;-66
2021/04/24 07:10:05;;;;;;;66.00;8.85;;;6.60;1.00;;;;;;5070378;28;20232;-66
2021/04/24 07:12:31;;;;;;;66.03;8.55;;;6.70;1.00;;;;;;5071594;28;20296;-66
2021/04/24 07:14:58;;;;;;;66.70;9.45;;;6.80;1.00;;;;;;5071475;28;20236;-67
2021/04/24 07:17:24;;;;;;;69.18;9.38;;;7.00;1.00;;;;;;5071658;28;20208;-67
2021/04/24 07:19:51;;;;;;;68.03;9.80;;;7.10;1.00;;;;;;5071415;28;20224;-67
2021/04/24 07:22:17;;;;;;;65.38;8.43;;;7.20;1.00;;;;;;5071410;28;20208;-66
2021/04/24 07:24:45;;;;;;;64.25;9.20;;;7.40;1.00;;;;;;5071509;28;20246;-67
2021/04/24 07:27:12;;;;;;;64.82;9.57;;;7.50;1.00;;;;;;5071390;28;20215;-67
2021/04/24 07:29:38;;;;;;;67.85;9.68;;;7.70;1.00;;;;;;5071299;28;20320;-67
2021/04/24 07:32:05;;;;;;;66.20;9.20;;;7.80;1.00;;;;;;5071377;28;20247;-67
2021/04/24 07:34:32;;;;;;;68.97;9.80;;;8.00;1.00;;;;;;5071360;28;20328;-66
2021/04/24 07:36:59;;;;;;;65.63;9.70;;;8.10;1.00;;;;;;5071289;28;20544;-66
2021/04/24 07:39:25;;;;;;;66.13;9.95;;;8.30;1.00;;;;;;5071558;28;20667;-67
2021/04/24 07:41:53;;;;;;;67.75;8.65;;;8.40;1.00;;;;;;5069641;28;20206;-67
2021/04/24 07:44:19;;;;;;;68.13;8.95;;;8.50;1.00;;;;;;5069498;28;20293;-67
2021/04/24 07:46:46;;;;;;;67.47;8.50;;;8.70;1.00;;;;;;5069785;28;20206;-67
2021/04/24 07:49:12;;;;;;;69.43;8.75;;;8.80;1.00;;;;;;5069301;28;20494;-67
2021/04/24 07:51:39;;;;;;;67.53;9.10;;;9.00;1.00;;;;;;5069303;28;20225;-67
2021/04/24 07:54:05;;;;;;;72.53;8.67;;;9.10;1.00;;;;;;5069876;28;20548;-67
2021/04/24 07:56:32;;;;;;;64.60;8.70;;;9.30;1.00;;;;;;5070756;28;20738;-67
2021/04/24 07:58:59;;;;;;;65.87;8.77;;;9.50;1.00;;;;;;5071172;28;20550;-67
2021/04/24 08:01:25;;;;;;;63.30;7.30;;;9.70;1.00;;;;;;5071139;28;20492;-67
2021/04/24 08:03:51;;;;;;;64.37;7.60;;;9.90;1.00;;;;;;5073515;28;20540;-66
2021/04/24 08:06:18;;;;;;;62.20;8.10;;;10.30;1.00;;;;;;5075156;28;20477;-68
2021/04/24 08:08:44;;;;;;;65.97;8.30;;;10.60;1.00;;;;;;5074921;28;20946;-68
2021/04/24 08:11:10;;;;;;;67.30;9.10;;;10.80;1.00;;;;;;5075074;28;20517;-68
2021/04/24 08:13:37;;;;;;;67.60;8.80;;;11.00;1.00;;;;;;5074896;28;20827;-68
2021/04/24 08:16:04;;;;;;;65.30;7.90;;;11.30;1.00;;;;;;5074810;28;20546;-68
2021/04/24 08:18:31;;;;;;;67.77;9.50;;;11.40;1.00;;;;;;5075171;28;20442;-68
2021/04/24 08:20:57;;;;;;;65.53;8.67;;;11.60;1.00;;;;;;5075013;28;20469;-67
2021/04/24 08:23:23;;;;;;;64.17;8.90;;;11.70;1.00;;;;;;5074532;28;20469;-67
2021/04/24 08:25:50;;;;;;;65.20;8.77;;;11.80;1.00;;;;;;5074667;28;20882;-67
2021/04/24 08:28:16;;;;;;;64.27;8.17;;;11.90;1.00;;;;;;5074482;28;21061;-67
2021/04/24 08:30:42;;;;;;;64.60;8.47;;;12.00;1.00;;;;;;5074595;28;20562;-68
2021/04/24 08:33:10;;;;;;;66.87;8.40;;;12.10;1.00;;;;;;5074117;28;20533;-67
2021/04/24 08:35:36;;;;;;;67.90;8.83;;;12.20;1.00;;;;;;5074565;28;20476;-68
2021/04/24 08:38:04;;;;;;;71.40;9.23;;;12.20;1.00;;;;;;5074464;28;20816;-68
2021/04/24 08:40:30;;;;;;;65.73;8.40;;;12.30;1.00;;;;;;5074688;28;20495;-67
2021/04/24 08:42:57;;;;;;;63.47;8.47;;;12.40;1.00;;;;;;5074288;28;20534;-68
2021/04/24 08:45:24;;;;;;;64.20;8.47;;;12.60;1.00;;;;;;5074143;28;20457;-67
2021/04/24 08:47:52;;;;;;;64.93;9.20;;;12.70;1.00;;;;;;5074487;28;20812;-68
2021/04/24 08:50:22;;;;;;;65.60;9.13;;;12.80;1.00;;;;;;5074319;28;20880;-68
2021/04/24 08:52:49;;;;;;;64.40;8.63;;;13.00;1.00;;;;;;5073866;28;20975;-68
2021/04/24 08:55:18;;;;;;;64.13;9.33;;;13.20;1.00;;;;;;5074224;28;20451;-67
2021/04/24 08:57:45;;;;;;;67.50;8.33;;;13.40;1.00;;;;;;5074152;28;20478;-68
2021/04/24 09:00:14;;;;;;;67.17;8.30;;;13.60;1.00;;;;;;5074243;28;20555;-67
2021/04/24 09:02:42;;;;;;;65.13;9.00;;;13.90;1.00;;;;;;5073995;28;20534;-67
2021/04/24 09:05:10;;;;;;;68.27;8.90;;;14.10;1.00;;;;;;5074002;28;20588;-68
2021/04/24 09:07:37;;;;;;;66.47;9.83;;;14.30;1.00;;;;;;5074021;28;20458;-66
2021/04/24 09:10:05;;;;;;;66.13;9.10;;;14.40;1.00;;;;;;5073812;28;20554;-68
2021/04/24 09:12:39;;;;;;;64.07;8.90;;;14.60;1.00;;;;;;5073718;28;20451;-67
2021/04/24 09:15:11;;;;;;;67.57;9.40;;;14.80;1.00;;;;;;5073157;28;20485;-68
2021/04/24 09:17:56;;;;;;;64.77;9.00;;;15.00;1.00;;;;;;5073958;28;20526;-68
2021/04/24 09:20:24;;;;;;;64.47;8.67;;;15.10;1.00;;;;;;5073327;28;20839;-65
2021/04/24 09:22:55;;;;;;;64.00;8.90;;;15.20;1.00;;;;;;5073253;28;20512;-65
2021/04/24 09:25:32;;;;;;;66.30;8.93;;;15.50;1.00;;;;;;5073440;28;20486;-65
2021/04/24 09:27:59;;;;;;;64.90;8.77;;;15.80;1.00;;;;;;5073734;28;20449;-67
2021/04/24 09:30:28;;;;;;;65.83;8.87;;;16.00;1.00;;;;;;5073434;28;20471;-66
2021/04/24 09:32:55;;;;;;;66.30;9.80;;;16.30;1.00;;;;;;5073263;28;20501;-67
2021/04/24 09:35:22;;;;;;;65.90;10.20;;;16.50;1.00;;;;;;5073316;28;20475;-67
2021/04/24 09:37:57;;;;;;;67.07;9.33;;;16.70;1.00;;;;;;5073699;28;20451;-67
2021/04/24 09:40:23;;;;;;;65.73;9.40;;;16.90;1.00;;;;;;5073364;28;21032;-66
2021/04/24 09:42:49;;;;;;;65.10;9.30;;;17.20;1.00;;;;;;5073031;28;20445;-66
2021/04/24 09:45:28;;;;;;;65.33;9.60;;;17.40;1.00;;;;;;5073277;28;20939;-66
2021/04/24 09:47:55;;;;;;;67.00;9.90;;;17.70;1.00;;;;;;5072909;28;20465;-66
2021/04/24 09:50:23;;;;;;;68.63;10.73;;;17.80;1.00;;;;;;5073055;28;20555;-65
2021/04/24 09:52:50;;;;;;;65.63;9.27;;;17.90;1.00;;;;;;5072734;28;20465;-66
2021/04/24 09:55:35;;;;;;;64.77;9.70;;;18.30;1.00;;;;;;5072846;28;20533;-66
2021/04/24 09:58:02;;;;;;;63.90;8.40;;;18.70;1.00;;;;;;5073010;28;21078;-67
2021/04/24 10:00:30;;;;;;;68.90;10.43;;;19.00;1.00;;;;;;5072822;28;20577;-68
2021/04/24 10:02:57;;;;;;;65.03;9.67;;;19.30;1.00;;;;;;5072903;28;20541;-67
2021/04/24 10:05:24;;;;;;;64.00;9.60;;;19.60;1.00;;;;;;5072612;28;20459;-67
2021/04/24 10:07:53;;;;;;;66.30;10.57;;;20.10;1.00;;;;;;5072781;28;21015;-67
2021/04/24 10:10:38;;;;;;;68.03;9.17;;;21.20;1.00;;;;;;5072508;28;20501;-67
2021/04/24 10:13:06;;;;;;;63.90;9.67;;;23.10;1.00;;;;;;5072756;28;20520;-66
2021/04/24 10:15:37;;;;;;;63.97;9.23;;;24.70;1.00;;;;;;5072757;28;20530;-68
2021/04/24 10:18:04;;;;;;;66.90;9.90;;;25.90;1.00;;;;;;5072548;28;20536;-68
2021/04/24 10:20:32;;;;;;;63.67;9.40;;;26.70;1.00;;;;;;5072157;28;20511;-65
2021/04/24 10:23:00;;;;;;;64.43;9.57;;;27.40;1.00;;;;;;5072261;28;20599;-67
2021/04/24 10:25:28;;;;;;;64.17;9.27;;;28.10;1.00;;;;;;5072751;28;20537;-67
2021/04/24 10:27:55;;;;;;;64.23;9.30;;;28.80;1.00;;;;;;5072109;28;20509;-68
2021/04/24 10:30:22;;;;;;;66.20;9.97;;;29.30;1.00;;;;;;5072257;28;20748;-68
2021/04/24 10:32:49;;;;;;;67.40;8.77;;;29.50;1.00;;;;;;5072184;28;20449;-68
2021/04/24 10:35:16;;;;;;;62.17;8.63;;;29.60;1.00;;;;;;5070721;28;20448;-68
2021/04/24 10:37:45;;;;;;;64.60;10.47;;;29.90;1.00;;;;;;5071764;28;20536;-68
2021/04/24 10:40:13;;;;;;;64.73;9.70;;;30.20;1.00;;;;;;5082413;28;20542;-68
2021/04/24 10:42:43;;;;;;;61.97;9.53;;;30.60;1.00;;;;;;5092045;28;20857;-65
2021/04/24 10:45:10;;;;;;;64.27;8.97;;;30.90;1.00;;;;;;5091991;28;20457;-65
2021/04/24 10:47:53;;;;;;;63.67;9.23;;;31.40;1.00;;;;;;5092172;28;20446;-66
2021/04/24 10:50:21;;;;;;;62.03;9.40;;;31.80;1.00;;;;;;5091916;28;20473;-66
2021/04/24 10:52:50;;;;;;;62.20;9.07;;;31.90;1.00;;;;;;5091613;28;20454;-66
2021/04/24 10:55:23;;;;;;;67.10;10.27;;;32.30;1.00;;;;;;5090831;28;20470;-66
2021/04/24 10:57:51;;;;;;;69.13;9.70;;;32.70;1.00;;;;;;5091948;28;20823;-66
2021/04/24 11:00:19;;;;;;;64.37;10.83;;;32.80;1.00;;;;;;5091722;28;20459;-66
2021/04/24 11:02:47;;;;;;;63.20;9.90;;;32.90;1.00;;;;;;5091563;28;20870;-66
2021/04/24 11:05:26;;;;;;;66.97;11.00;;;32.80;1.00;;;;;;5091959;28;20954;-66
2021/04/24 11:08:25;;;;;;;65.83;10.10;;;32.90;1.00;;;;;;5091679;28;20452;-66
2021/04/24 11:11:01;;;;;;;65.13;9.37;;;33.10;1.00;;;;;;5091554;28;20474;-66
2021/04/24 11:13:30;;;;;;;66.00;9.70;;;33.40;1.00;;;;;;5092063;28;20532;-67
2021/04/24 11:15:58;;;;;;;62.10;8.73;;;33.70;1.00;;;;;;5091490;28;20446;-66
2021/04/24 11:18:25;;;;;;;66.07;10.60;;;34.00;1.00;;;;;;5091387;28;21103;-66
2021/04/24 11:20:56;;;;;;;62.50;9.33;;;34.10;1.00;;;;;;5091626;28;20524;-67
2021/04/24 11:23:41;;;;;;;64.27;10.00;;;34.20;1.00;;;;;;5091494;28;20509;-66
2021/04/24 11:26:09;;;;;;;64.30;10.70;;;34.10;1.00;;;;;;5088562;28;20485;-66
2021/04/24 11:29:03;;;;;;;63.63;11.27;;;34.20;1.00;;;;;;5071526;28;20716;-66
2021/04/24 11:32:03;;;;;;;62.97;9.07;;;34.10;1.00;;;;;;5071547;28;20505;-66
2021/04/24 11:34:42;;;;;;;68.43;9.90;;;34.10;1.00;;;;;;5069535;28;20517;-66
2021/04/24 11:37:27;;;;;;;62.30;9.63;;;34.20;1.00;;;;;;5071571;28;20477;-66
2021/04/24 11:40:22;;;;;;;67.67;10.63;;;34.50;1.00;;;;;;5075264;28;20490;-67
2021/04/24 11:43:10;;;;;;;63.87;9.33;;;34.80;1.00;;;;;;5075372;28;20443;-68
2021/04/24 11:46:01;;;;;;;63.30;10.23;;;35.10;1.00;;;;;;5075250;28;20824;-68
2021/04/24 11:49:03;;;;;;;61.93;9.17;;;35.30;1.00;;;;;;5072612;28;20597;-67
2021/04/24 11:51:45;;;;;;;62.37;9.43;;;35.60;1.00;;;;;;5062279;28;20472;-68
2021/04/24 11:54:14;;;;;;;60.37;8.83;;;36.10;1.00;;;;;;5075119;28;20474;-67
2021/04/24 11:56:44;;;;;;;62.70;8.60;;;35.90;1.00;;;;;;5074907;28;20526;-68
2021/04/24 11:59:11;;;;;;;61.90;9.20;;;36.00;1.00;;;;;;5074024;28;20518;-68
2021/04/24 12:01:39;;;;;;;64.97;10.37;;;36.40;1.00;;;;;;5074610;28;20481;-68
2021/04/24 12:04:22;;;;;;;63.67;10.60;;;36.30;1.00;;;;;;5075149;28;20522;-67
2021/04/24 12:06:48;;;;;;;63.50;11.50;;;36.00;1.00;;;;;;5075136;28;20530;-68
2021/04/24 12:09:15;;;;;;;62.50;10.73;;;35.70;1.00;;;;;;5074660;28;20546;-68
2021/04/24 12:11:54;;;;;;;63.47;9.33;;;35.70;1.00;;;;;;5074814;28;20455;-68
2021/04/24 12:14:21;;;;;;;63.77;10.50;;;36.10;1.00;;;;;;5074076;28;20475;-68
2021/04/24 12:16:49;;;;;;;61.17;9.23;;;36.80;1.00;;;;;;5073518;28;20970;-68
2021/04/24 12:19:24;;;;;;;65.80;10.23;;;37.40;1.00;;;;;;5074218;28;20566;-68
2021/04/24 12:22:04;;;;;;;64.10;10.07;;;37.80;1.00;;;;;;5074500;28;20490;-65
2021/04/24 12:24:30;;;;;;;62.27;9.73;;;37.80;1.00;;;;;;5074397;28;20932;-66
2021/04/24 12:26:57;;;;;;;63.10;10.30;;;38.00;1.00;;;;;;5074573;28;20538;-65
2021/04/24 12:29:42;;;;;;;63.47;9.90;;;38.00;1.00;;;;;;5076442;28;20473;-66
2021/04/24 12:32:18;;;;;;;61.77;9.80;;;38.20;1.00;;;;;;5094074;28;20977;-65
2021/04/24 12:34:44;;;;;;;62.20;10.07;;;38.50;1.00;;;;;;5094735;28;20455;-66
2021/04/24 12:37:14;;;;;;;68.43;9.90;;;38.80;1.00;;;;;;5094775;28;20454;-65
2021/04/24 12:39:41;;;;;;;62.03;8.57;;;39.00;1.00;;;;;;5094271;28;20486;-65
2021/04/24 12:42:09;;;;;;;63.60;9.50;;;39.20;1.00;;;;;;5094395;28;20520;-65
2021/04/24 12:44:36;;;;;;;62.10;8.90;;;39.40;1.00;;;;;;5094462;28;20520;-65
2021/04/24 12:47:02;;;;;;;65.73;9.20;;;39.00;1.00;;;;;;5094009;28;20512;-66
2021/04/24 12:49:30;;;;;;;61.20;9.10;;;38.40;1.00;;;;;;5092838;28;20458;-67
2021/04/24 12:52:01;;;;;;;62.40;10.23;;;37.70;1.00;;;;;;5094054;28;20458;-67
2021/04/24 12:54:28;;;;;;;64.63;8.60;;;37.60;1.00;;;;;;5094353;28;20836;-67
2021/04/24 12:57:19;;;;;;;60.90;8.60;;;37.60;1.00;;;;;;5094099;28;20450;-67